sensor_id;sensor_type;location;lat;lon;timestamp;pressure;altitude;pressure_sealevel;temperature;humidity
21566;BME280;10943;48.738;9.320;2022-08-03T00:00:33;98879.13;;;22.44;56.15
21566;BME280;10943;48.738;9.320;2022-08-03T00:03:04;98866.75;;;22.54;56.05
21566;BME280;10943;48.738;9.320;2022-08-03T00:05:31;98867.63;;;22.40;55.83
21566;BME280;10943;48.738;9.320;2022-08-03T00:08:00;98871.47;;;22.08;56.96
21566;BME280;10943;48.738;9.320;2022-08-03T00:10:28;98869.41;;;22.00;58.17
21566;BME280;10943;48.738;9.320;2022-08-03T00:12:56;98862.38;;;22.34;56.90
21566;BME280;10943;48.738;9.320;2022-08-03T00:15:23;98867.16;;;22.11;57.20
21566;BME280;10943;48.738;9.320;2022-08-03T00:17:53;98861.28;;;21.84;58.39
21566;BME280;10943;48.738;9.320;2022-08-03T00:20:21;98864.31;;;21.88;57.81
21566;BME280;10943;48.738;9.320;2022-08-03T00:22:49;98867.34;;;21.91;58.44
21566;BME280;10943;48.738;9.320;2022-08-03T00:25:17;98867.09;;;22.02;58.39
21566;BME280;10943;48.738;9.320;2022-08-03T00:27:45;98865.16;;;22.25;57.65
21566;BME280;10943;48.738;9.320;2022-08-03T00:30:16;98864.97;;;22.21;57.58
21566;BME280;10943;48.738;9.320;2022-08-03T00:32:44;98860.03;;;22.13;58.20
21566;BME280;10943;48.738;9.320;2022-08-03T00:35:12;98864.75;;;22.54;57.04
21566;BME280;10943;48.738;9.320;2022-08-03T00:37:59;98855.88;;;22.11;57.74
21566;BME280;10943;48.738;9.320;2022-08-03T00:40:27;98857.06;;;22.09;58.04
21566;BME280;10943;48.738;9.320;2022-08-03T00:43:01;98859.81;;;21.73;58.51
21566;BME280;10943;48.738;9.320;2022-08-03T00:45:33;98861.16;;;22.26;56.64
21566;BME280;10943;48.738;9.320;2022-08-03T00:48:04;98859.03;;;22.09;56.72
21566;BME280;10943;48.738;9.320;2022-08-03T00:50:55;98868.25;;;22.01;57.56
21566;BME280;10943;48.738;9.320;2022-08-03T00:53:26;98858.56;;;21.79;58.08
21566;BME280;10943;48.738;9.320;2022-08-03T00:55:53;98863.19;;;21.61;58.82
21566;BME280;10943;48.738;9.320;2022-08-03T00:58:21;98862.56;;;21.64;58.83
21566;BME280;10943;48.738;9.320;2022-08-03T01:04:38;98861.59;;;21.69;58.91
21566;BME280;10943;48.738;9.320;2022-08-03T01:14:43;98858.50;;;21.56;60.30
21566;BME280;10943;48.738;9.320;2022-08-03T01:21:08;98857.09;;;21.82;59.50
21566;BME280;10943;48.738;9.320;2022-08-03T01:30:30;98838.41;;;21.44;60.21
21566;BME280;10943;48.738;9.320;2022-08-03T01:36:53;98833.91;;;21.43;58.52
21566;BME280;10943;48.738;9.320;2022-08-03T01:39:24;98834.66;;;21.63;60.03
21566;BME280;10943;48.738;9.320;2022-08-03T01:41:59;98839.13;;;21.78;59.42
21566;BME280;10943;48.738;9.320;2022-08-03T01:51:59;98838.59;;;21.34;61.41
21566;BME280;10943;48.738;9.320;2022-08-03T01:55:03;98829.50;;;21.51;60.98
21566;BME280;10943;48.738;9.320;2022-08-03T01:57:34;98836.66;;;21.62;60.46
21566;BME280;10943;48.738;9.320;2022-08-03T02:00:24;98819.69;;;21.48;61.15
21566;BME280;10943;48.738;9.320;2022-08-03T02:02:53;98824.94;;;21.41;61.13
21566;BME280;10943;48.738;9.320;2022-08-03T02:05:27;98828.47;;;21.33;60.93
21566;BME280;10943;48.738;9.320;2022-08-03T02:07:56;98827.75;;;21.13;60.92
21566;BME280;10943;48.738;9.320;2022-08-03T02:10:26;98822.72;;;21.38;60.09
21566;BME280;10943;48.738;9.320;2022-08-03T02:13:06;98833.94;;;20.82;62.10
21566;BME280;10943;48.738;9.320;2022-08-03T02:15:40;98827.44;;;21.01;62.09
21566;BME280;10943;48.738;9.320;2022-08-03T02:18:08;98827.09;;;20.88;62.16
21566;BME280;10943;48.738;9.320;2022-08-03T02:20:43;98827.19;;;20.83;62.70
21566;BME280;10943;48.738;9.320;2022-08-03T02:23:16;98833.44;;;20.80;63.36
21566;BME280;10943;48.738;9.320;2022-08-03T02:25:50;98833.47;;;21.08;62.73
21566;BME280;10943;48.738;9.320;2022-08-03T02:28:27;98821.78;;;21.15;62.13
21566;BME280;10943;48.738;9.320;2022-08-03T02:30:59;98833.47;;;20.94;62.25
21566;BME280;10943;48.738;9.320;2022-08-03T02:33:43;98832.00;;;20.83;62.52
21566;BME280;10943;48.738;9.320;2022-08-03T02:36:22;98835.13;;;20.81;63.14
21566;BME280;10943;48.738;9.320;2022-08-03T02:38:57;98828.03;;;20.98;62.17
21566;BME280;10943;48.738;9.320;2022-08-03T02:41:45;98832.00;;;20.83;62.89
21566;BME280;10943;48.738;9.320;2022-08-03T02:44:22;98836.06;;;20.90;62.60
21566;BME280;10943;48.738;9.320;2022-08-03T02:47:00;98833.19;;;21.09;61.63
21566;BME280;10943;48.738;9.320;2022-08-03T02:49:31;98830.00;;;20.83;62.50
21566;BME280;10943;48.738;9.320;2022-08-03T02:52:20;98827.09;;;20.55;63.93
21566;BME280;10943;48.738;9.320;2022-08-03T02:54:55;98831.19;;;20.63;63.21
21566;BME280;10943;48.738;9.320;2022-08-03T02:57:29;98824.06;;;20.52;63.36
21566;BME280;10943;48.738;9.320;2022-08-03T03:00:00;98827.50;;;20.49;63.85
21566;BME280;10943;48.738;9.320;2022-08-03T03:02:34;98825.50;;;20.82;62.62
21566;BME280;10943;48.738;9.320;2022-08-03T03:05:03;98823.28;;;21.12;61.04
21566;BME280;10943;48.738;9.320;2022-08-03T03:07:52;98829.72;;;20.99;61.29
21566;BME280;10943;48.738;9.320;2022-08-03T03:10:22;98834.59;;;20.79;61.84
21566;BME280;10943;48.738;9.320;2022-08-03T03:12:55;98828.50;;;20.39;63.15
21566;BME280;10943;48.738;9.320;2022-08-03T03:15:26;98824.06;;;20.52;62.92
21566;BME280;10943;48.738;9.320;2022-08-03T03:17:58;98829.22;;;20.44;63.08
21566;BME280;10943;48.738;9.320;2022-08-03T03:20:28;98825.56;;;20.63;62.52
21566;BME280;10943;48.738;9.320;2022-08-03T03:23:00;98823.22;;;20.84;61.45
21566;BME280;10943;48.738;9.320;2022-08-03T03:25:31;98819.88;;;20.82;61.72
21566;BME280;10943;48.738;9.320;2022-08-03T03:28:02;98824.69;;;20.82;61.55
21566;BME280;10943;48.738;9.320;2022-08-03T03:30:33;98820.22;;;20.61;62.58
21566;BME280;10943;48.738;9.320;2022-08-03T03:33:04;98820.59;;;20.41;63.12
21566;BME280;10943;48.738;9.320;2022-08-03T03:35:32;98819.03;;;20.49;62.96
21566;BME280;10943;48.738;9.320;2022-08-03T03:38:06;98823.00;;;20.48;62.98
21566;BME280;10943;48.738;9.320;2022-08-03T03:40:37;98822.72;;;20.63;63.35
21566;BME280;10943;48.738;9.320;2022-08-03T03:43:11;98821.22;;;20.52;63.74
21566;BME280;10943;48.738;9.320;2022-08-03T03:45:42;98821.47;;;20.55;63.82
21566;BME280;10943;48.738;9.320;2022-08-03T03:48:12;98825.13;;;20.37;64.38
21566;BME280;10943;48.738;9.320;2022-08-03T03:50:40;98819.22;;;20.19;65.12
21566;BME280;10943;48.738;9.320;2022-08-03T03:53:11;98824.59;;;20.54;64.07
21566;BME280;10943;48.738;9.320;2022-08-03T03:55:40;98824.00;;;20.38;64.32
21566;BME280;10943;48.738;9.320;2022-08-03T03:58:28;98830.56;;;20.33;65.02
21566;BME280;10943;48.738;9.320;2022-08-03T04:00:59;98824.13;;;20.47;64.28
21566;BME280;10943;48.738;9.320;2022-08-03T04:03:27;98833.22;;;20.57;63.72
21566;BME280;10943;48.738;9.320;2022-08-03T04:05:56;98824.22;;;20.41;64.75
21566;BME280;10943;48.738;9.320;2022-08-03T04:08:42;98836.69;;;20.54;63.99
21566;BME280;10943;48.738;9.320;2022-08-03T04:11:53;98833.28;;;20.38;64.71
21566;BME280;10943;48.738;9.320;2022-08-03T04:14:32;98827.66;;;20.38;64.69
21566;BME280;10943;48.738;9.320;2022-08-03T04:17:04;98840.94;;;20.71;63.26
21566;BME280;10943;48.738;9.320;2022-08-03T04:19:39;98837.09;;;20.81;62.50
21566;BME280;10943;48.738;9.320;2022-08-03T04:22:22;98839.84;;;20.67;62.75
21566;BME280;10943;48.738;9.320;2022-08-03T04:25:02;98827.13;;;20.69;62.81
21566;BME280;10943;48.738;9.320;2022-08-03T04:27:39;98836.25;;;20.80;62.58
21566;BME280;10943;48.738;9.320;2022-08-03T04:30:08;98828.22;;;20.73;62.91
21566;BME280;10943;48.738;9.320;2022-08-03T04:32:39;98830.03;;;20.64;62.85
21566;BME280;10943;48.738;9.320;2022-08-03T04:35:12;98840.03;;;20.56;63.19
21566;BME280;10943;48.738;9.320;2022-08-03T04:37:46;98845.31;;;20.77;61.85
21566;BME280;10943;48.738;9.320;2022-08-03T04:40:32;98844.50;;;20.76;61.85
21566;BME280;10943;48.738;9.320;2022-08-03T04:43:02;98854.88;;;21.09;61.42
21566;BME280;10943;48.738;9.320;2022-08-03T04:45:32;98854.03;;;21.92;58.78
21566;BME280;10943;48.738;9.320;2022-08-03T04:48:02;98858.44;;;23.34;55.26
21566;BME280;10943;48.738;9.320;2022-08-03T04:50:31;98859.84;;;24.65;51.13
21566;BME280;10943;48.738;9.320;2022-08-03T04:53:06;98863.75;;;25.64;48.14
21566;BME280;10943;48.738;9.320;2022-08-03T04:55:35;98859.31;;;26.35;46.47
21566;BME280;10943;48.738;9.320;2022-08-03T04:58:03;98864.16;;;26.77;45.13
21566;BME280;10943;48.738;9.320;2022-08-03T05:00:31;98858.13;;;27.37;43.86
21566;BME280;10943;48.738;9.320;2022-08-03T05:02:59;98871.22;;;27.87;42.51
21566;BME280;10943;48.738;9.320;2022-08-03T05:05:26;98871.00;;;29.14;40.04
21566;BME280;10943;48.738;9.320;2022-08-03T05:08:19;98867.19;;;29.87;38.26
21566;BME280;10943;48.738;9.320;2022-08-03T05:10:55;98867.00;;;30.31;37.32
21566;BME280;10943;48.738;9.320;2022-08-03T05:13:25;98869.53;;;31.34;35.13
21566;BME280;10943;48.738;9.320;2022-08-03T05:15:53;98878.63;;;32.36;32.91
21566;BME280;10943;48.738;9.320;2022-08-03T05:18:20;98882.53;;;32.82;32.33
21566;BME280;10943;48.738;9.320;2022-08-03T05:20:51;98891.31;;;33.30;31.42
21566;BME280;10943;48.738;9.320;2022-08-03T05:23:18;98891.81;;;33.36;30.97
21566;BME280;10943;48.738;9.320;2022-08-03T05:25:46;98892.75;;;33.51;30.76
21566;BME280;10943;48.738;9.320;2022-08-03T05:28:16;98890.81;;;32.87;31.76
21566;BME280;10943;48.738;9.320;2022-08-03T05:30:43;98889.63;;;32.61;32.04
21566;BME280;10943;48.738;9.320;2022-08-03T05:33:14;98889.06;;;32.79;32.17
21566;BME280;10943;48.738;9.320;2022-08-03T05:35:42;98887.97;;;33.24;31.23
21566;BME280;10943;48.738;9.320;2022-08-03T05:38:31;98887.97;;;34.14;30.05
21566;BME280;10943;48.738;9.320;2022-08-03T05:41:05;98887.88;;;34.63;28.95
21566;BME280;10943;48.738;9.320;2022-08-03T05:43:52;98894.41;;;34.56;29.06
21566;BME280;10943;48.738;9.320;2022-08-03T05:46:23;98889.03;;;34.51;29.01
21566;BME280;10943;48.738;9.320;2022-08-03T05:48:51;98890.06;;;34.84;28.50
21566;BME280;10943;48.738;9.320;2022-08-03T05:51:18;98893.69;;;34.74;28.98
21566;BME280;10943;48.738;9.320;2022-08-03T05:53:51;98891.91;;;35.53;27.81
21566;BME280;10943;48.738;9.320;2022-08-03T05:56:22;98897.59;;;36.87;26.05
21566;BME280;10943;48.738;9.320;2022-08-03T05:58:53;98893.31;;;37.17;24.99
21566;BME280;10943;48.738;9.320;2022-08-03T06:01:21;98896.00;;;36.68;25.22
21566;BME280;10943;48.738;9.320;2022-08-03T06:03:50;98898.25;;;34.75;27.93
21566;BME280;10943;48.738;9.320;2022-08-03T06:06:18;98892.34;;;34.49;28.19
21566;BME280;10943;48.738;9.320;2022-08-03T06:08:46;98887.50;;;34.64;28.34
21566;BME280;10943;48.738;9.320;2022-08-03T06:11:15;98891.94;;;35.64;27.45
21566;BME280;10943;48.738;9.320;2022-08-03T06:13:43;98898.53;;;36.33;26.02
21566;BME280;10943;48.738;9.320;2022-08-03T06:16:11;98892.34;;;35.41;27.12
21566;BME280;10943;48.738;9.320;2022-08-03T06:18:39;98887.25;;;35.02;27.94
21566;BME280;10943;48.738;9.320;2022-08-03T06:21:10;98891.09;;;35.39;27.51
21566;BME280;10943;48.738;9.320;2022-08-03T06:23:47;98895.25;;;36.24;26.32
21566;BME280;10943;48.738;9.320;2022-08-03T06:26:23;98896.06;;;36.32;26.03
21566;BME280;10943;48.738;9.320;2022-08-03T06:28:53;98897.59;;;36.87;25.73
21566;BME280;10943;48.738;9.320;2022-08-03T06:31:24;98900.81;;;38.23;23.74
21566;BME280;10943;48.738;9.320;2022-08-03T06:34:04;98904.13;;;38.29;23.79
21566;BME280;10943;48.738;9.320;2022-08-03T06:36:54;98892.75;;;39.18;22.92
21566;BME280;10943;48.738;9.320;2022-08-03T06:39:28;98895.56;;;39.53;22.33
21566;BME280;10943;48.738;9.320;2022-08-03T06:41:55;98900.78;;;39.38;22.46
21566;BME280;10943;48.738;9.320;2022-08-03T06:44:25;98894.19;;;39.34;22.55
21566;BME280;10943;48.738;9.320;2022-08-03T06:46:53;98903.44;;;39.52;22.38
21566;BME280;10943;48.738;9.320;2022-08-03T06:49:21;98900.59;;;39.18;22.92
21566;BME280;10943;48.738;9.320;2022-08-03T06:51:49;98898.94;;;40.26;21.88
21566;BME280;10943;48.738;9.320;2022-08-03T06:54:32;98902.78;;;41.07;20.75
21566;BME280;10943;48.738;9.320;2022-08-03T06:57:00;98908.53;;;42.00;19.77
21566;BME280;10943;48.738;9.320;2022-08-03T06:59:27;98905.56;;;43.51;18.73
21566;BME280;10943;48.738;9.320;2022-08-03T07:02:17;98908.06;;;44.39;17.50
21566;BME280;10943;48.738;9.320;2022-08-03T07:04:47;98913.03;;;44.04;17.62
21566;BME280;10943;48.738;9.320;2022-08-03T07:07:15;98912.56;;;43.54;17.86
21566;BME280;10943;48.738;9.320;2022-08-03T07:09:43;98911.84;;;42.94;18.50
21566;BME280;10943;48.738;9.320;2022-08-03T07:12:26;98907.25;;;42.01;19.52
21566;BME280;10943;48.738;9.320;2022-08-03T07:14:58;98908.25;;;42.44;19.19
21566;BME280;10943;48.738;9.320;2022-08-03T07:17:33;98896.19;;;42.59;19.12
21566;BME280;10943;48.738;9.320;2022-08-03T07:20:07;98900.47;;;43.13;18.89
21566;BME280;10943;48.738;9.320;2022-08-03T07:22:36;98900.53;;;43.77;18.12
21566;BME280;10943;48.738;9.320;2022-08-03T07:25:04;98894.25;;;44.97;16.98
21566;BME280;10943;48.738;9.320;2022-08-03T07:27:33;98897.84;;;46.36;15.88
21566;BME280;10943;48.738;9.320;2022-08-03T07:30:01;98903.66;;;46.27;15.87
21566;BME280;10943;48.738;9.320;2022-08-03T07:32:29;98892.59;;;47.15;15.19
21566;BME280;10943;48.738;9.320;2022-08-03T07:34:57;98888.97;;;45.58;16.28
21566;BME280;10943;48.738;9.320;2022-08-03T07:37:28;98891.59;;;46.25;15.77
21566;BME280;10943;48.738;9.320;2022-08-03T07:40:22;98892.31;;;46.85;14.96
21566;BME280;10943;48.738;9.320;2022-08-03T07:42:58;98898.91;;;48.17;14.07
21566;BME280;10943;48.738;9.320;2022-08-03T07:45:26;98890.84;;;49.05;13.14
21566;BME280;10943;48.738;9.320;2022-08-03T07:47:54;98901.00;;;49.64;13.08
21566;BME280;10943;48.738;9.320;2022-08-03T07:50:21;98899.16;;;50.38;12.44
21566;BME280;10943;48.738;9.320;2022-08-03T07:52:49;98892.56;;;49.57;12.79
21566;BME280;10943;48.738;9.320;2022-08-03T07:55:24;98889.94;;;49.29;12.94
21566;BME280;10943;48.738;9.320;2022-08-03T07:58:07;98896.63;;;50.10;12.23
21566;BME280;10943;48.738;9.320;2022-08-03T08:00:38;98878.78;;;48.64;13.52
21566;BME280;10943;48.738;9.320;2022-08-03T08:03:05;98888.16;;;50.18;12.40
21566;BME280;10943;48.738;9.320;2022-08-03T08:05:33;98881.03;;;50.45;12.16
21566;BME280;10943;48.738;9.320;2022-08-03T08:26:36;98870.94;;;52.01;11.02
21566;BME280;10943;48.738;9.320;2022-08-03T08:29:05;98879.03;;;51.62;11.04
21566;BME280;10943;48.738;9.320;2022-08-03T08:31:34;98869.56;;;53.45;9.82
21566;BME280;10943;48.738;9.320;2022-08-03T08:34:02;98869.00;;;53.75;9.59
21566;BME280;10943;48.738;9.320;2022-08-03T08:36:37;98863.00;;;54.79;9.03
21566;BME280;10943;48.738;9.320;2022-08-03T08:50:26;98858.34;;;56.55;7.95
21566;BME280;10943;48.738;9.320;2022-08-03T08:56:41;98854.56;;;56.93;7.50
21566;BME280;10943;48.738;9.320;2022-08-03T08:59:09;98857.47;;;57.31;6.87
21566;BME280;10943;48.738;9.320;2022-08-03T09:01:43;98853.44;;;56.96;7.47
21566;BME280;10943;48.738;9.320;2022-08-03T09:08:24;98846.06;;;55.40;7.34
21566;BME280;10943;48.738;9.320;2022-08-03T09:18:04;98842.81;;;57.79;6.93
21566;BME280;10943;48.738;9.320;2022-08-03T09:31:45;98828.84;;;58.75;6.47
21566;BME280;10943;48.738;9.320;2022-08-03T09:38:20;98830.34;;;58.07;6.46
